sensor_id;sensor_type;location;lat;lon;timestamp;temperature;humidity
68943;DHT22;60852;52.190;4.422;2023-09-08T00:01:31;22.85;70.81
68943;DHT22;60852;52.190;4.422;2023-09-08T00:03:56;22.84;70.84
68943;DHT22;60852;52.190;4.422;2023-09-08T00:06:22;22.84;70.97
68943;DHT22;60852;52.190;4.422;2023-09-08T00:08:47;22.81;70.96
68943;DHT22;60852;52.190;4.422;2023-09-08T00:11:12;22.76;70.91
68943;DHT22;60852;52.190;4.422;2023-09-08T00:13:38;22.75;71.02
68943;DHT22;60852;52.190;4.422;2023-09-08T00:16:05;22.76;70.91
68943;DHT22;60852;52.190;4.422;2023-09-08T00:18:32;22.71;70.73
68943;DHT22;60852;52.190;4.422;2023-09-08T00:20:58;22.71;70.87
68943;DHT22;60852;52.190;4.422;2023-09-08T00:23:23;22.72;70.74
68943;DHT22;60852;52.190;4.422;2023-09-08T00:25:49;22.71;70.77
68943;DHT22;60852;52.190;4.422;2023-09-08T00:28:14;22.68;70.72
68943;DHT22;60852;52.190;4.422;2023-09-08T00:30:40;22.65;70.78
68943;DHT22;60852;52.190;4.422;2023-09-08T00:33:05;22.61;70.99
68943;DHT22;60852;52.190;4.422;2023-09-08T00:35:34;22.60;71.26
68943;DHT22;60852;52.190;4.422;2023-09-08T00:38:00;22.60;71.40
68943;DHT22;60852;52.190;4.422;2023-09-08T00:40:27;22.57;71.58
68943;DHT22;60852;52.190;4.422;2023-09-08T00:42:53;22.57;71.26
68943;DHT22;60852;52.190;4.422;2023-09-08T00:45:18;22.51;71.38
68943;DHT22;60852;52.190;4.422;2023-09-08T00:47:44;22.43;71.57
68943;DHT22;60852;52.190;4.422;2023-09-08T00:50:09;22.41;71.65
68943;DHT22;60852;52.190;4.422;2023-09-08T00:52:35;22.34;71.66
68943;DHT22;60852;52.190;4.422;2023-09-08T00:55:01;22.32;71.77
68943;DHT22;60852;52.190;4.422;2023-09-08T00:57:26;22.27;71.97
68943;DHT22;60852;52.190;4.422;2023-09-08T00:59:53;22.24;71.76
68943;DHT22;60852;52.190;4.422;2023-09-08T01:02:20;22.24;71.82
68943;DHT22;60852;52.190;4.422;2023-09-08T01:04:46;22.23;71.85
68943;DHT22;60852;52.190;4.422;2023-09-08T01:07:14;22.21;71.96
68943;DHT22;60852;52.190;4.422;2023-09-08T01:09:40;22.17;71.72
68943;DHT22;60852;52.190;4.422;2023-09-08T01:12:06;22.17;71.60
68943;DHT22;60852;52.190;4.422;2023-09-08T01:14:32;22.16;71.38
68943;DHT22;60852;52.190;4.422;2023-09-08T01:16:58;22.20;71.49
68943;DHT22;60852;52.190;4.422;2023-09-08T01:19:23;22.25;71.39
68943;DHT22;60852;52.190;4.422;2023-09-08T01:25:05;22.13;71.32
68943;DHT22;60852;52.190;4.422;2023-09-08T01:27:37;22.07;71.32
68943;DHT22;60852;52.190;4.422;2023-09-08T01:30:05;22.02;71.51
68943;DHT22;60852;52.190;4.422;2023-09-08T01:32:32;21.99;71.51
68943;DHT22;60852;52.190;4.422;2023-09-08T01:35:00;21.97;71.65
68943;DHT22;60852;52.190;4.422;2023-09-08T01:37:26;21.99;71.62
68943;DHT22;60852;52.190;4.422;2023-09-08T01:39:51;21.96;71.67
68943;DHT22;60852;52.190;4.422;2023-09-08T01:42:17;22.02;71.51
68943;DHT22;60852;52.190;4.422;2023-09-08T01:44:42;22.00;71.58
68943;DHT22;60852;52.190;4.422;2023-09-08T01:47:08;21.99;71.51
68943;DHT22;60852;52.190;4.422;2023-09-08T01:49:33;22.00;71.58
68943;DHT22;60852;52.190;4.422;2023-09-08T01:51:59;21.99;71.49
68943;DHT22;60852;52.190;4.422;2023-09-08T01:54:24;22.03;71.32
68943;DHT22;60852;52.190;4.422;2023-09-08T01:56:49;22.02;71.15
68943;DHT22;60852;52.190;4.422;2023-09-08T01:59:16;21.99;71.15
68943;DHT22;60852;52.190;4.422;2023-09-08T02:01:42;21.99;71.11
68943;DHT22;60852;52.190;4.422;2023-09-08T02:04:07;21.95;70.90
68943;DHT22;60852;52.190;4.422;2023-09-08T02:06:33;21.88;71.18
68943;DHT22;60852;52.190;4.422;2023-09-08T02:08:58;21.85;71.48
68943;DHT22;60852;52.190;4.422;2023-09-08T02:11:24;21.82;71.67
68943;DHT22;60852;52.190;4.422;2023-09-08T02:13:49;21.82;72.01
68943;DHT22;60852;52.190;4.422;2023-09-08T02:16:15;21.81;71.87
68943;DHT22;60852;52.190;4.422;2023-09-08T02:18:44;21.73;72.23
68943;DHT22;60852;52.190;4.422;2023-09-08T02:21:10;21.73;72.38
68943;DHT22;60852;52.190;4.422;2023-09-08T02:23:36;21.67;72.26
68943;DHT22;60852;52.190;4.422;2023-09-08T02:26:02;21.65;72.46
68943;DHT22;60852;52.190;4.422;2023-09-08T02:28:27;21.59;72.85
68943;DHT22;60852;52.190;4.422;2023-09-08T02:30:53;21.56;73.33
68943;DHT22;60852;52.190;4.422;2023-09-08T02:33:19;21.54;73.41
68943;DHT22;60852;52.190;4.422;2023-09-08T02:35:45;21.48;73.46
68943;DHT22;60852;52.190;4.422;2023-09-08T02:38:10;21.45;73.44
68943;DHT22;60852;52.190;4.422;2023-09-08T02:40:36;21.44;73.53
68943;DHT22;60852;52.190;4.422;2023-09-08T02:43:02;21.41;73.61
68943;DHT22;60852;52.190;4.422;2023-09-08T02:45:28;21.41;73.79
68943;DHT22;60852;52.190;4.422;2023-09-08T02:47:54;21.39;73.59
68943;DHT22;60852;52.190;4.422;2023-09-08T02:50:20;21.35;73.77
68943;DHT22;60852;52.190;4.422;2023-09-08T02:52:45;21.38;73.60
68943;DHT22;60852;52.190;4.422;2023-09-08T02:55:12;21.39;73.42
68943;DHT22;60852;52.190;4.422;2023-09-08T02:57:38;21.37;73.61
68943;DHT22;60852;52.190;4.422;2023-09-08T03:00:05;21.35;73.71
68943;DHT22;60852;52.190;4.422;2023-09-08T03:02:31;21.37;73.41
68943;DHT22;60852;52.190;4.422;2023-09-08T03:04:56;21.34;73.56
68943;DHT22;60852;52.190;4.422;2023-09-08T03:07:22;21.32;73.28
68943;DHT22;60852;52.190;4.422;2023-09-08T03:09:47;21.30;73.49
68943;DHT22;60852;52.190;4.422;2023-09-08T03:12:13;21.28;73.81
68943;DHT22;60852;52.190;4.422;2023-09-08T03:14:39;21.28;73.83
68943;DHT22;60852;52.190;4.422;2023-09-08T03:17:04;21.28;73.82
68943;DHT22;60852;52.190;4.422;2023-09-08T03:19:30;21.27;73.81
68943;DHT22;60852;52.190;4.422;2023-09-08T03:21:56;21.24;73.87
68943;DHT22;60852;52.190;4.422;2023-09-08T03:24:22;21.21;74.17
68943;DHT22;60852;52.190;4.422;2023-09-08T03:26:47;21.20;74.00
68943;DHT22;60852;52.190;4.422;2023-09-08T03:29:13;21.17;74.17
68943;DHT22;60852;52.190;4.422;2023-09-08T03:31:38;21.12;74.34
68943;DHT22;60852;52.190;4.422;2023-09-08T03:34:04;21.15;74.22
68943;DHT22;60852;52.190;4.422;2023-09-08T03:36:30;21.14;74.22
68943;DHT22;60852;52.190;4.422;2023-09-08T03:38:56;21.11;74.43
68943;DHT22;60852;52.190;4.422;2023-09-08T03:41:23;21.08;74.36
68943;DHT22;60852;52.190;4.422;2023-09-08T03:43:49;21.06;74.34
68943;DHT22;60852;52.190;4.422;2023-09-08T03:46:14;21.01;74.53
68943;DHT22;60852;52.190;4.422;2023-09-08T03:48:40;21.03;74.43
68943;DHT22;60852;52.190;4.422;2023-09-08T03:51:05;21.01;74.42
68943;DHT22;60852;52.190;4.422;2023-09-08T03:53:31;20.98;74.48
68943;DHT22;60852;52.190;4.422;2023-09-08T03:55:56;20.93;74.80
68943;DHT22;60852;52.190;4.422;2023-09-08T03:58:22;20.94;74.92
68943;DHT22;60852;52.190;4.422;2023-09-08T04:00:47;20.97;74.83
68943;DHT22;60852;52.190;4.422;2023-09-08T04:03:13;21.00;74.80
68943;DHT22;60852;52.190;4.422;2023-09-08T04:05:39;20.96;74.63
68943;DHT22;60852;52.190;4.422;2023-09-08T04:08:04;20.87;75.01
68943;DHT22;60852;52.190;4.422;2023-09-08T04:10:30;20.86;75.20
68943;DHT22;60852;52.190;4.422;2023-09-08T04:12:56;20.87;75.37
68943;DHT22;60852;52.190;4.422;2023-09-08T04:15:21;20.88;75.15
68943;DHT22;60852;52.190;4.422;2023-09-08T04:17:48;20.86;75.16
68943;DHT22;60852;52.190;4.422;2023-09-08T04:20:13;20.87;75.02
68943;DHT22;60852;52.190;4.422;2023-09-08T04:22:42;20.86;75.24
68943;DHT22;60852;52.190;4.422;2023-09-08T04:25:08;20.84;75.39
68943;DHT22;60852;52.190;4.422;2023-09-08T04:27:33;20.87;75.36
68943;DHT22;60852;52.190;4.422;2023-09-08T04:30:00;20.86;75.19
68943;DHT22;60852;52.190;4.422;2023-09-08T04:32:25;20.84;74.96
68943;DHT22;60852;52.190;4.422;2023-09-08T04:34:51;20.79;74.67
68943;DHT22;60852;52.190;4.422;2023-09-08T04:37:17;20.75;74.85
68943;DHT22;60852;52.190;4.422;2023-09-08T04:39:42;20.73;74.93
68943;DHT22;60852;52.190;4.422;2023-09-08T04:42:08;20.70;75.08
68943;DHT22;60852;52.190;4.422;2023-09-08T04:44:33;20.70;74.67
68943;DHT22;60852;52.190;4.422;2023-09-08T04:46:59;20.65;74.86
68943;DHT22;60852;52.190;4.422;2023-09-08T04:49:24;20.63;75.05
68943;DHT22;60852;52.190;4.422;2023-09-08T04:51:50;20.60;75.09
68943;DHT22;60852;52.190;4.422;2023-09-08T04:54:15;20.57;75.24
68943;DHT22;60852;52.190;4.422;2023-09-08T04:56:41;20.57;75.31
68943;DHT22;60852;52.190;4.422;2023-09-08T04:59:07;20.57;75.29
68943;DHT22;60852;52.190;4.422;2023-09-08T05:01:32;20.60;75.28
68943;DHT22;60852;52.190;4.422;2023-09-08T05:04:00;20.59;75.21
68943;DHT22;60852;52.190;4.422;2023-09-08T05:06:26;20.55;75.19
68943;DHT22;60852;52.190;4.422;2023-09-08T05:08:51;20.47;75.41
68943;DHT22;60852;52.190;4.422;2023-09-08T05:11:17;20.47;75.54
68943;DHT22;60852;52.190;4.422;2023-09-08T05:13:44;20.50;75.51
68943;DHT22;60852;52.190;4.422;2023-09-08T05:16:09;20.50;75.59
68943;DHT22;60852;52.190;4.422;2023-09-08T05:18:39;20.50;75.63
68943;DHT22;60852;52.190;4.422;2023-09-08T05:21:05;20.50;75.67
68943;DHT22;60852;52.190;4.422;2023-09-08T05:23:31;20.50;75.66
68943;DHT22;60852;52.190;4.422;2023-09-08T05:25:57;20.56;75.46
68943;DHT22;60852;52.190;4.422;2023-09-08T05:28:22;20.53;75.41
68943;DHT22;60852;52.190;4.422;2023-09-08T05:30:51;20.53;75.56
68943;DHT22;60852;52.190;4.422;2023-09-08T05:33:16;20.56;75.56
68943;DHT22;60852;52.190;4.422;2023-09-08T05:35:42;20.59;75.55
68943;DHT22;60852;52.190;4.422;2023-09-08T05:38:07;20.66;75.49
68943;DHT22;60852;52.190;4.422;2023-09-08T05:40:34;20.70;75.10
68943;DHT22;60852;52.190;4.422;2023-09-08T05:43:00;20.70;75.07
68943;DHT22;60852;52.190;4.422;2023-09-08T05:45:26;20.73;75.13
68943;DHT22;60852;52.190;4.422;2023-09-08T05:47:52;20.75;75.14
68943;DHT22;60852;52.190;4.422;2023-09-08T05:50:17;20.77;74.95
68943;DHT22;60852;52.190;4.422;2023-09-08T05:52:43;20.80;74.94
68943;DHT22;60852;52.190;4.422;2023-09-08T05:55:08;20.79;74.99
68943;DHT22;60852;52.190;4.422;2023-09-08T05:57:34;20.80;75.17
68943;DHT22;60852;52.190;4.422;2023-09-08T06:00:01;20.83;75.15
68943;DHT22;60852;52.190;4.422;2023-09-08T06:02:26;20.87;75.15
68943;DHT22;60852;52.190;4.422;2023-09-08T06:04:52;20.93;75.08
68943;DHT22;60852;52.190;4.422;2023-09-08T06:07:17;20.91;74.92
68943;DHT22;60852;52.190;4.422;2023-09-08T06:09:43;20.94;75.07
68943;DHT22;60852;52.190;4.422;2023-09-08T06:12:08;20.97;75.06
68943;DHT22;60852;52.190;4.422;2023-09-08T06:14:34;21.04;74.98
68943;DHT22;60852;52.190;4.422;2023-09-08T06:16:59;21.04;75.01
68943;DHT22;60852;52.190;4.422;2023-09-08T06:19:25;21.11;75.00
68943;DHT22;60852;52.190;4.422;2023-09-08T06:21:50;21.12;74.78
68943;DHT22;60852;52.190;4.422;2023-09-08T06:24:15;21.12;74.95
68943;DHT22;60852;52.190;4.422;2023-09-08T06:26:41;21.23;74.89
68943;DHT22;60852;52.190;4.422;2023-09-08T06:29:08;21.25;74.96
68943;DHT22;60852;52.190;4.422;2023-09-08T06:31:33;21.31;74.93
68943;DHT22;60852;52.190;4.422;2023-09-08T06:33:59;21.35;74.89
68943;DHT22;60852;52.190;4.422;2023-09-08T06:36:24;21.44;74.90
68943;DHT22;60852;52.190;4.422;2023-09-08T06:38:50;21.52;74.64
68943;DHT22;60852;52.190;4.422;2023-09-08T06:41:15;21.59;74.56
68943;DHT22;60852;52.190;4.422;2023-09-08T06:43:41;21.65;74.46
68943;DHT22;60852;52.190;4.422;2023-09-08T06:46:07;21.75;74.38
68943;DHT22;60852;52.190;4.422;2023-09-08T06:48:33;21.83;74.27
68943;DHT22;60852;52.190;4.422;2023-09-08T06:50:58;21.86;74.09
68943;DHT22;60852;52.190;4.422;2023-09-08T06:53:24;21.96;73.95
68943;DHT22;60852;52.190;4.422;2023-09-08T06:55:50;22.04;73.78
68943;DHT22;60852;52.190;4.422;2023-09-08T06:58:15;22.07;73.67
68943;DHT22;60852;52.190;4.422;2023-09-08T07:00:41;22.13;73.42
68943;DHT22;60852;52.190;4.422;2023-09-08T07:03:07;22.17;73.49
68943;DHT22;60852;52.190;4.422;2023-09-08T07:05:34;22.25;73.17
68943;DHT22;60852;52.190;4.422;2023-09-08T07:07:59;22.36;72.89
68943;DHT22;60852;52.190;4.422;2023-09-08T07:10:25;22.43;72.74
68943;DHT22;60852;52.190;4.422;2023-09-08T07:12:50;22.47;72.43
68943;DHT22;60852;52.190;4.422;2023-09-08T07:15:16;22.51;72.38
68943;DHT22;60852;52.190;4.422;2023-09-08T07:17:41;22.55;72.22
68943;DHT22;60852;52.190;4.422;2023-09-08T07:20:08;22.64;72.00
68943;DHT22;60852;52.190;4.422;2023-09-08T07:22:33;22.68;71.77
68943;DHT22;60852;52.190;4.422;2023-09-08T07:24:59;22.72;71.88
68943;DHT22;60852;52.190;4.422;2023-09-08T07:27:24;22.78;71.69
68943;DHT22;60852;52.190;4.422;2023-09-08T07:29:50;22.87;71.66
68943;DHT22;60852;52.190;4.422;2023-09-08T07:32:16;22.92;71.66
68943;DHT22;60852;52.190;4.422;2023-09-08T07:34:42;22.95;71.59
68943;DHT22;60852;52.190;4.422;2023-09-08T07:37:08;23.03;71.45
68943;DHT22;60852;52.190;4.422;2023-09-08T07:39:33;23.09;71.38
68943;DHT22;60852;52.190;4.422;2023-09-08T07:42:01;23.11;71.44
68943;DHT22;60852;52.190;4.422;2023-09-08T07:44:26;23.13;71.50
68943;DHT22;60852;52.190;4.422;2023-09-08T07:46:52;23.22;71.59
68943;DHT22;60852;52.190;4.422;2023-09-08T07:49:18;23.29;71.47
68943;DHT22;60852;52.190;4.422;2023-09-08T07:51:45;23.33;71.29
68943;DHT22;60852;52.190;4.422;2023-09-08T07:54:10;23.38;71.24
68943;DHT22;60852;52.190;4.422;2023-09-08T07:56:36;23.40;71.29
68943;DHT22;60852;52.190;4.422;2023-09-08T07:59:02;23.47;71.04
68943;DHT22;60852;52.190;4.422;2023-09-08T08:01:28;23.50;70.84
68943;DHT22;60852;52.190;4.422;2023-09-08T08:03:53;23.54;70.81
68943;DHT22;60852;52.190;4.422;2023-09-08T08:06:19;23.66;70.79
68943;DHT22;60852;52.190;4.422;2023-09-08T08:08:44;23.74;70.54
68943;DHT22;60852;52.190;4.422;2023-09-08T08:11:14;23.77;70.54
68943;DHT22;60852;52.190;4.422;2023-09-08T08:13:40;23.87;70.47
68943;DHT22;60852;52.190;4.422;2023-09-08T08:16:06;23.93;70.39
68943;DHT22;60852;52.190;4.422;2023-09-08T08:18:32;24.01;70.33
68943;DHT22;60852;52.190;4.422;2023-09-08T08:20:58;24.10;70.16
68943;DHT22;60852;52.190;4.422;2023-09-08T08:23:25;24.12;70.03
68943;DHT22;60852;52.190;4.422;2023-09-08T08:25:51;24.21;70.03
68943;DHT22;60852;52.190;4.422;2023-09-08T08:28:17;24.28;69.89
68943;DHT22;60852;52.190;4.422;2023-09-08T08:30:42;24.38;69.76
68943;DHT22;60852;52.190;4.422;2023-09-08T08:33:08;24.39;69.49
68943;DHT22;60852;52.190;4.422;2023-09-08T08:35:33;24.47;69.72
68943;DHT22;60852;52.190;4.422;2023-09-08T08:37:59;24.53;69.66
68943;DHT22;60852;52.190;4.422;2023-09-08T08:40:27;24.56;69.47
68943;DHT22;60852;52.190;4.422;2023-09-08T08:42:57;24.56;69.92
68943;DHT22;60852;52.190;4.422;2023-09-08T08:45:24;24.62;70.00
68943;DHT22;60852;52.190;4.422;2023-09-08T08:47:51;24.70;69.89
68943;DHT22;60852;52.190;4.422;2023-09-08T08:50:18;24.79;69.89
68943;DHT22;60852;52.190;4.422;2023-09-08T08:52:43;24.86;69.62
68943;DHT22;60852;52.190;4.422;2023-09-08T08:55:09;24.94;69.66
68943;DHT22;60852;52.190;4.422;2023-09-08T08:57:38;25.04;69.55
68943;DHT22;60852;52.190;4.422;2023-09-08T09:00:06;25.10;69.29
68943;DHT22;60852;52.190;4.422;2023-09-08T09:02:39;25.18;69.33
68943;DHT22;60852;52.190;4.422;2023-09-08T09:05:12;25.30;69.22
68943;DHT22;60852;52.190;4.422;2023-09-08T09:07:43;25.37;69.29
68943;DHT22;60852;52.190;4.422;2023-09-08T09:10:10;25.48;69.16
68943;DHT22;60852;52.190;4.422;2023-09-08T09:12:37;25.57;68.96
68943;DHT22;60852;52.190;4.422;2023-09-08T09:15:03;25.67;68.47
68943;DHT22;60852;52.190;4.422;2023-09-08T09:17:32;25.69;68.80
68943;DHT22;60852;52.190;4.422;2023-09-08T09:20:15;25.78;68.48
68943;DHT22;60852;52.190;4.422;2023-09-08T09:22:43;25.85;68.44
68943;DHT22;60852;52.190;4.422;2023-09-08T09:25:09;25.98;68.24
68943;DHT22;60852;52.190;4.422;2023-09-08T09:27:36;26.05;67.97
68943;DHT22;60852;52.190;4.422;2023-09-08T09:30:04;26.06;67.84
68943;DHT22;60852;52.190;4.422;2023-09-08T09:32:30;26.13;67.47
68943;DHT22;60852;52.190;4.422;2023-09-08T09:34:57;26.20;67.46
68943;DHT22;60852;52.190;4.422;2023-09-08T09:37:23;26.27;67.16
68943;DHT22;60852;52.190;4.422;2023-09-08T09:39:50;26.40;67.21
68943;DHT22;60852;52.190;4.422;2023-09-08T09:42:15;26.43;67.02
68943;DHT22;60852;52.190;4.422;2023-09-08T09:44:41;26.50;67.14
68943;DHT22;60852;52.190;4.422;2023-09-08T09:47:07;26.47;64.70
68943;DHT22;60852;52.190;4.422;2023-09-08T09:49:45;26.56;64.02
68943;DHT22;60852;52.190;4.422;2023-09-08T09:52:12;26.67;62.85
68943;DHT22;60852;52.190;4.422;2023-09-08T09:54:42;26.70;62.64
68943;DHT22;60852;52.190;4.422;2023-09-08T09:57:13;26.83;62.51
68943;DHT22;60852;52.190;4.422;2023-09-08T09:59:40;26.90;62.17
68943;DHT22;60852;52.190;4.422;2023-09-08T10:02:12;26.88;62.17
68943;DHT22;60852;52.190;4.422;2023-09-08T10:04:42;26.91;61.85
68943;DHT22;60852;52.190;4.422;2023-09-08T10:07:08;26.92;62.28
68943;DHT22;60852;52.190;4.422;2023-09-08T10:09:36;26.95;61.78
68943;DHT22;60852;52.190;4.422;2023-09-08T10:12:04;27.02;61.68
68943;DHT22;60852;52.190;4.422;2023-09-08T10:14:32;27.11;61.78
68943;DHT22;60852;52.190;4.422;2023-09-08T10:17:02;27.42;60.67
68943;DHT22;60852;52.190;4.422;2023-09-08T10:19:28;28.20;58.80
68943;DHT22;60852;52.190;4.422;2023-09-08T10:22:02;28.84;57.03
68943;DHT22;60852;52.190;4.422;2023-09-08T10:24:33;29.34;54.87
68943;DHT22;60852;52.190;4.422;2023-09-08T10:27:10;29.64;54.56
68943;DHT22;60852;52.190;4.422;2023-09-08T10:29:37;29.93;54.01
68943;DHT22;60852;52.190;4.422;2023-09-08T10:32:06;30.26;53.34
68943;DHT22;60852;52.190;4.422;2023-09-08T10:34:34;30.50;52.31
68943;DHT22;60852;52.190;4.422;2023-09-08T10:37:00;30.63;51.90
68943;DHT22;60852;52.190;4.422;2023-09-08T10:39:36;30.76;51.14
68943;DHT22;60852;52.190;4.422;2023-09-08T10:45:02;30.90;50.85
68943;DHT22;60852;52.190;4.422;2023-09-08T10:50:16;31.11;49.75
68943;DHT22;60852;52.190;4.422;2023-09-08T10:52:42;31.28;49.76
68943;DHT22;60852;52.190;4.422;2023-09-08T10:55:08;31.29;49.61
68943;DHT22;60852;52.190;4.422;2023-09-08T10:57:34;31.29;49.57
68943;DHT22;60852;52.190;4.422;2023-09-08T11:00:04;31.19;49.43
68943;DHT22;60852;52.190;4.422;2023-09-08T11:05:08;30.88;49.89
68943;DHT22;60852;52.190;4.422;2023-09-08T11:07:38;30.49;51.32
68943;DHT22;60852;52.190;4.422;2023-09-08T11:10:05;30.25;52.30
68943;DHT22;60852;52.190;4.422;2023-09-08T11:12:31;30.08;52.46
68943;DHT22;60852;52.190;4.422;2023-09-08T11:14:58;30.05;52.96
68943;DHT22;60852;52.190;4.422;2023-09-08T11:17:30;29.99;53.15
68943;DHT22;60852;52.190;4.422;2023-09-08T11:19:56;30.01;53.00
68943;DHT22;60852;52.190;4.422;2023-09-08T11:22:26;29.97;52.99
68943;DHT22;60852;52.190;4.422;2023-09-08T11:24:55;29.93;53.01
68943;DHT22;60852;52.190;4.422;2023-09-08T11:27:22;29.91;53.44
68943;DHT22;60852;52.190;4.422;2023-09-08T11:29:49;29.84;53.22
68943;DHT22;60852;52.190;4.422;2023-09-08T11:32:15;29.84;53.38
68943;DHT22;60852;52.190;4.422;2023-09-08T11:34:41;29.81;53.62
68943;DHT22;60852;52.190;4.422;2023-09-08T11:37:11;29.81;53.82
68943;DHT22;60852;52.190;4.422;2023-09-08T11:39:43;29.82;53.28
68943;DHT22;60852;52.190;4.422;2023-09-08T11:42:12;29.77;53.68
68943;DHT22;60852;52.190;4.422;2023-09-08T11:44:38;29.74;53.33
68943;DHT22;60852;52.190;4.422;2023-09-08T11:47:08;29.70;53.65
68943;DHT22;60852;52.190;4.422;2023-09-08T11:49:39;29.64;54.06
68943;DHT22;60852;52.190;4.422;2023-09-08T11:52:06;29.67;54.38
68943;DHT22;60852;52.190;4.422;2023-09-08T11:54:32;29.71;54.12
68943;DHT22;60852;52.190;4.422;2023-09-08T11:57:04;29.75;53.95
68943;DHT22;60852;52.190;4.422;2023-09-08T11:59:32;29.79;53.86
68943;DHT22;60852;52.190;4.422;2023-09-08T12:01:58;29.79;54.00
68943;DHT22;60852;52.190;4.422;2023-09-08T12:04:25;29.77;54.35
68943;DHT22;60852;52.190;4.422;2023-09-08T12:06:52;29.74;53.98
68943;DHT22;60852;52.190;4.422;2023-09-08T12:09:20;29.65;53.77
68943;DHT22;60852;52.190;4.422;2023-09-08T12:11:47;29.55;54.66
68943;DHT22;60852;52.190;4.422;2023-09-08T12:14:14;29.53;54.36
68943;DHT22;60852;52.190;4.422;2023-09-08T12:16:41;29.48;55.13
68943;DHT22;60852;52.190;4.422;2023-09-08T12:19:08;29.51;54.47
68943;DHT22;60852;52.190;4.422;2023-09-08T12:21:55;29.50;54.77
68943;DHT22;60852;52.190;4.422;2023-09-08T12:24:56;29.54;54.56
68943;DHT22;60852;52.190;4.422;2023-09-08T12:27:25;29.50;54.95
68943;DHT22;60852;52.190;4.422;2023-09-08T12:29:56;29.51;55.53
68943;DHT22;60852;52.190;4.422;2023-09-08T12:32:23;29.46;55.80
68943;DHT22;60852;52.190;4.422;2023-09-08T12:34:48;29.46;56.07
68943;DHT22;60852;52.190;4.422;2023-09-08T12:37:14;29.53;55.80
68943;DHT22;60852;52.190;4.422;2023-09-08T12:39:39;29.50;55.96
68943;DHT22;60852;52.190;4.422;2023-09-08T12:42:05;29.47;56.03
68943;DHT22;60852;52.190;4.422;2023-09-08T12:44:30;29.41;56.27
68943;DHT22;60852;52.190;4.422;2023-09-08T12:46:56;29.38;55.78
68943;DHT22;60852;52.190;4.422;2023-09-08T12:49:21;29.38;55.73
68943;DHT22;60852;52.190;4.422;2023-09-08T12:51:47;29.43;54.38
68943;DHT22;60852;52.190;4.422;2023-09-08T12:54:12;29.47;53.99
68943;DHT22;60852;52.190;4.422;2023-09-08T12:56:38;29.51;51.49
68943;DHT22;60852;52.190;4.422;2023-09-08T12:59:03;29.61;51.74
68943;DHT22;60852;52.190;4.422;2023-09-08T13:01:29;29.70;51.90
68943;DHT22;60852;52.190;4.422;2023-09-08T13:03:54;29.84;52.81
68943;DHT22;60852;52.190;4.422;2023-09-08T13:06:20;29.93;50.86
68943;DHT22;60852;52.190;4.422;2023-09-08T13:08:45;29.88;51.17
68943;DHT22;60852;52.190;4.422;2023-09-08T13:11:11;29.84;51.57
68943;DHT22;60852;52.190;4.422;2023-09-08T13:13:36;29.84;52.28
68943;DHT22;60852;52.190;4.422;2023-09-08T13:16:02;29.84;52.66
68943;DHT22;60852;52.190;4.422;2023-09-08T13:18:27;29.89;53.06
68943;DHT22;60852;52.190;4.422;2023-09-08T13:20:53;29.86;52.88
68943;DHT22;60852;52.190;4.422;2023-09-08T13:23:18;29.92;52.78
68943;DHT22;60852;52.190;4.422;2023-09-08T13:25:44;29.93;50.79
68943;DHT22;60852;52.190;4.422;2023-09-08T13:28:10;29.93;49.35
68943;DHT22;60852;52.190;4.422;2023-09-08T13:30:35;30.04;50.62
68943;DHT22;60852;52.190;4.422;2023-09-08T13:33:01;30.12;51.68
68943;DHT22;60852;52.190;4.422;2023-09-08T13:35:26;30.16;51.48
68943;DHT22;60852;52.190;4.422;2023-09-08T13:37:52;30.05;50.66
68943;DHT22;60852;52.190;4.422;2023-09-08T13:40:17;29.98;51.76
68943;DHT22;60852;52.190;4.422;2023-09-08T13:42:43;30.04;50.86
68943;DHT22;60852;52.190;4.422;2023-09-08T13:45:10;30.02;51.60
68943;DHT22;60852;52.190;4.422;2023-09-08T13:47:35;29.98;51.79
68943;DHT22;60852;52.190;4.422;2023-09-08T13:50:03;29.89;52.25
68943;DHT22;60852;52.190;4.422;2023-09-08T13:52:28;29.86;52.66
68943;DHT22;60852;52.190;4.422;2023-09-08T13:54:54;29.86;53.41
68943;DHT22;60852;52.190;4.422;2023-09-08T13:57:19;29.89;52.95
68943;DHT22;60852;52.190;4.422;2023-09-08T13:59:46;29.78;52.31
68943;DHT22;60852;52.190;4.422;2023-09-08T14:02:11;29.71;53.28
68943;DHT22;60852;52.190;4.422;2023-09-08T14:04:37;29.70;54.67
68943;DHT22;60852;52.190;4.422;2023-09-08T14:07:05;29.62;54.15
68943;DHT22;60852;52.190;4.422;2023-09-08T14:09:31;29.61;54.11
68943;DHT22;60852;52.190;4.422;2023-09-08T14:11:56;29.60;54.22
68943;DHT22;60852;52.190;4.422;2023-09-08T14:14:22;29.67;54.98
68943;DHT22;60852;52.190;4.422;2023-09-08T14:16:49;29.67;54.70
68943;DHT22;60852;52.190;4.422;2023-09-08T14:19:15;29.60;53.41
68943;DHT22;60852;52.190;4.422;2023-09-08T14:21:40;29.54;53.14
68943;DHT22;60852;52.190;4.422;2023-09-08T14:24:06;29.58;53.03
68943;DHT22;60852;52.190;4.422;2023-09-08T14:26:32;29.55;53.89
68943;DHT22;60852;52.190;4.422;2023-09-08T14:28:57;29.54;52.76
68943;DHT22;60852;52.190;4.422;2023-09-08T14:31:22;29.57;53.02
68943;DHT22;60852;52.190;4.422;2023-09-08T14:33:48;29.57;52.54
68943;DHT22;60852;52.190;4.422;2023-09-08T14:36:18;29.57;52.06
68943;DHT22;60852;52.190;4.422;2023-09-08T14:38:44;29.55;51.87
68943;DHT22;60852;52.190;4.422;2023-09-08T14:41:10;29.54;51.65
68943;DHT22;60852;52.190;4.422;2023-09-08T14:43:35;29.48;52.23
68943;DHT22;60852;52.190;4.422;2023-09-08T14:46:01;29.53;51.90
68943;DHT22;60852;52.190;4.422;2023-09-08T14:48:29;29.48;52.00
68943;DHT22;60852;52.190;4.422;2023-09-08T14:50:56;29.40;52.92
68943;DHT22;60852;52.190;4.422;2023-09-08T14:53:22;29.37;53.33
68943;DHT22;60852;52.190;4.422;2023-09-08T14:55:47;29.33;53.63
68943;DHT22;60852;52.190;4.422;2023-09-08T14:58:14;29.37;54.62
68943;DHT22;60852;52.190;4.422;2023-09-08T15:00:40;29.31;55.60
68943;DHT22;60852;52.190;4.422;2023-09-08T15:03:06;29.33;55.87
68943;DHT22;60852;52.190;4.422;2023-09-08T15:05:33;29.30;55.49
68943;DHT22;60852;52.190;4.422;2023-09-08T15:07:59;29.27;55.71
68943;DHT22;60852;52.190;4.422;2023-09-08T15:10:25;29.20;55.51
68943;DHT22;60852;52.190;4.422;2023-09-08T15:12:51;29.16;56.51
68943;DHT22;60852;52.190;4.422;2023-09-08T15:15:17;29.10;58.21
68943;DHT22;60852;52.190;4.422;2023-09-08T15:17:52;29.06;58.75
68943;DHT22;60852;52.190;4.422;2023-09-08T15:20:18;29.02;57.87
68943;DHT22;60852;52.190;4.422;2023-09-08T15:22:44;29.00;58.56
68943;DHT22;60852;52.190;4.422;2023-09-08T15:25:09;29.00;58.51
68943;DHT22;60852;52.190;4.422;2023-09-08T15:27:35;28.96;59.32
68943;DHT22;60852;52.190;4.422;2023-09-08T15:30:00;28.84;59.58
68943;DHT22;60852;52.190;4.422;2023-09-08T15:32:26;28.79;60.92
68943;DHT22;60852;52.190;4.422;2023-09-08T15:34:51;28.76;60.90
68943;DHT22;60852;52.190;4.422;2023-09-08T15:37:17;28.72;60.73